createdAt,value
2022-08-08T00:00:54.072Z,1.80
2022-08-08T00:03:20.215Z,3.50
2022-08-08T00:06:05.789Z,3.00
2022-08-08T00:08:49.271Z,2.63
2022-08-08T00:11:46.126Z,3.00
2022-08-08T00:14:58.968Z,5.63
2022-08-08T00:18:01.699Z,2.20
2022-08-08T00:20:28.838Z,2.20
2022-08-08T00:23:02.554Z,2.50
2022-08-08T00:25:46.342Z,2.42
2022-08-08T00:28:35.894Z,2.30
2022-08-08T00:32:15.497Z,2.50
2022-08-08T00:34:57.628Z,2.40
2022-08-08T00:37:47.332Z,2.60
2022-08-08T00:41:11.864Z,4.90
2022-08-08T00:43:21.845Z,7.07
2022-08-08T00:46:16.585Z,3.00
2022-08-08T00:49:00.913Z,19.15
2022-08-08T00:52:04.206Z,3.63
2022-08-08T00:54:56.108Z,2.80
2022-08-08T00:57:45.139Z,2.70
2022-08-08T01:00:33.351Z,31.73
2022-08-08T01:04:02.216Z,19.80
2022-08-08T01:07:01.728Z,2.30
2022-08-08T01:09:48.797Z,259.15
2022-08-08T01:12:34.046Z,38.95
2022-08-08T01:15:43.501Z,2.50
2022-08-08T01:18:53.183Z,2.30
2022-08-08T01:22:09.800Z,2.80
2022-08-08T01:24:54.169Z,14.25
2022-08-08T01:27:24.298Z,85.00
2022-08-08T01:30:11.776Z,8.02
2022-08-08T01:33:00.453Z,2.60
2022-08-08T01:36:01.200Z,14.55
2022-08-08T01:39:24.284Z,86.72
2022-08-08T01:41:57.989Z,108.68
2022-08-08T01:45:13.707Z,14.55
2022-08-08T01:48:23.298Z,2.10
2022-08-08T01:51:06.103Z,26.10
2022-08-08T01:55:25.695Z,4.40
2022-08-08T01:58:12.439Z,343.45
2022-08-08T02:00:41.687Z,3.80
2022-08-08T02:03:55.202Z,127.68
2022-08-08T02:06:36.595Z,11.27
2022-08-08T02:10:02.390Z,2.35
2022-08-08T02:12:32.250Z,220.23
2022-08-08T02:15:27.859Z,5.75
2022-08-08T02:18:22.196Z,548.83
2022-08-08T02:21:21.934Z,3.72
2022-08-08T02:24:00.198Z,3.20
2022-08-08T02:26:37.542Z,3.30
2022-08-08T02:29:21.182Z,2.30
2022-08-08T02:32:15.793Z,1.90
2022-08-08T02:35:23.314Z,2.50
2022-08-08T02:38:25.035Z,435.40
2022-08-08T02:42:03.669Z,2.80
2022-08-08T02:44:38.035Z,2.40
2022-08-08T02:47:35.614Z,2.70
2022-08-08T02:50:41.131Z,123.28
2022-08-08T02:53:57.609Z,83.03
2022-08-08T02:56:58.041Z,4.68
2022-08-08T02:59:57.905Z,2.25
2022-08-08T03:02:42.456Z,6.55
2022-08-08T03:05:26.437Z,7.18
2022-08-08T03:08:18.564Z,8.60
2022-08-08T03:11:25.686Z,8.27
2022-08-08T03:15:56.219Z,35.13
2022-08-08T03:17:41.787Z,597.47
2022-08-08T03:20:18.745Z,2.25
2022-08-08T03:22:56.688Z,2.22
2022-08-08T03:25:33.949Z,6.05
2022-08-08T03:28:28.300Z,566.17
2022-08-08T03:31:22.215Z,13.98
2022-08-08T03:33:54.995Z,20.30
2022-08-08T03:36:30.293Z,10.10
2022-08-08T03:39:14.696Z,33.47
2022-08-08T03:42:13.092Z,5.60
2022-08-08T03:44:35.719Z,78.20
2022-08-08T03:47:19.394Z,209.57
2022-08-08T03:50:01.172Z,8.15
2022-08-08T03:52:31.375Z,2.85
2022-08-08T03:55:10.569Z,2.80
2022-08-08T03:58:33.653Z,2.88
2022-08-08T04:01:01.652Z,2.60
2022-08-08T04:03:58.179Z,2.60
2022-08-08T04:06:29.709Z,385.30
2022-08-08T04:09:10.239Z,48.63
2022-08-08T04:11:57.659Z,49.25
2022-08-08T04:14:34.357Z,281.83
2022-08-08T04:17:04.426Z,20.73
2022-08-08T04:19:36.595Z,22.83
2022-08-08T04:22:04.265Z,3.88
2022-08-08T04:24:31.796Z,683.03
2022-08-08T04:26:59.740Z,245.20
2022-08-08T04:29:27.801Z,950.00
2022-08-08T04:32:03.871Z,111.00
2022-08-08T04:34:55.257Z,168.80
2022-08-08T04:37:20.486Z,34.03
2022-08-08T04:40:06.539Z,2.58
2022-08-08T04:42:36.976Z,2.40
2022-08-08T04:45:04.960Z,1.92
2022-08-08T04:47:32.069Z,2.10
2022-08-08T04:50:04.966Z,2.60
2022-08-08T04:52:34.272Z,2.60
2022-08-08T04:55:04.478Z,2.80
2022-08-08T04:57:34.405Z,16.23
2022-08-08T05:00:02.266Z,2.90
2022-08-08T05:02:31.297Z,8.80
2022-08-08T05:04:59.894Z,211.05
2022-08-08T05:07:38.238Z,3.80
2022-08-08T05:10:12.663Z,3.00
2022-08-08T05:12:53.607Z,2.77
2022-08-08T05:15:31.518Z,2.70
2022-08-08T05:18:13.877Z,3.20
2022-08-08T05:20:50.473Z,3.00
2022-08-08T05:23:20.578Z,2.85
2022-08-08T05:25:48.924Z,3.17
2022-08-08T05:28:16.486Z,7.47
2022-08-08T05:31:19.520Z,3.10
2022-08-08T05:33:50.198Z,5.80
2022-08-08T05:36:25.278Z,2.90
2022-08-08T05:38:53.456Z,3.20
2022-08-08T05:41:24.899Z,3.03
2022-08-08T05:44:13.571Z,3.10
2022-08-08T05:46:41.901Z,3.17
2022-08-08T05:49:16.392Z,3.30
2022-08-08T05:51:49.090Z,3.70
2022-08-08T05:54:28.971Z,4.10
2022-08-08T05:57:07.108Z,4.20
2022-08-08T05:59:58.992Z,4.38
2022-08-08T06:02:48.090Z,4.72
2022-08-08T06:05:35.621Z,229.27
2022-08-08T06:08:09.530Z,13.70
2022-08-08T06:10:40.914Z,5.83
2022-08-08T06:13:08.955Z,6.38
2022-08-08T06:15:51.256Z,8.77
2022-08-08T06:18:22.226Z,13.30
2022-08-08T06:20:52.882Z,5.30
2022-08-08T06:23:32.689Z,5.88
2022-08-08T06:26:43.597Z,74.27
2022-08-08T06:29:26.467Z,4.20
2022-08-08T06:32:10.460Z,3.05
2022-08-08T06:34:56.174Z,4.18
2022-08-08T06:37:39.630Z,17.27
2022-08-08T06:40:12.779Z,3.55
2022-08-08T06:42:52.479Z,3.60
2022-08-08T06:45:22.976Z,3.60
2022-08-08T06:47:52.246Z,3.30
2022-08-08T06:50:31.520Z,7.63
2022-08-08T06:53:13.824Z,3.75
2022-08-08T06:55:46.884Z,3.65
2022-08-08T06:58:14.501Z,3.67
2022-08-08T07:00:46.071Z,3.22
2022-08-08T07:04:34.800Z,3.08
2022-08-08T07:06:17.299Z,2.95
2022-08-08T07:08:49.476Z,3.20
2022-08-08T07:11:22.965Z,3.00
2022-08-08T07:14:00.539Z,3.60
2022-08-08T07:16:32.777Z,3.67
2022-08-08T07:19:19.000Z,3.50
2022-08-08T07:22:18.706Z,3.60
2022-08-08T07:25:00.114Z,2.97
2022-08-08T07:27:47.452Z,3.40
2022-08-08T07:30:25.831Z,3.88
2022-08-08T07:32:53.537Z,3.50
2022-08-08T07:35:21.516Z,3.50
2022-08-08T07:38:04.330Z,3.30
2022-08-08T07:40:40.066Z,3.50
2022-08-08T07:43:09.337Z,3.28
2022-08-08T07:45:59.764Z,3.72
2022-08-08T07:48:23.957Z,3.35
2022-08-08T07:50:54.969Z,3.70
2022-08-08T07:54:01.551Z,3.50
2022-08-08T07:56:35.507Z,3.60
2022-08-08T07:59:10.487Z,3.85
2022-08-08T08:02:33.051Z,8.80
2022-08-08T08:04:33.140Z,4.35
2022-08-08T08:07:08.731Z,3.72
2022-08-08T08:09:39.358Z,3.40
2022-08-08T08:12:09.846Z,3.40
2022-08-08T08:14:58.505Z,3.20
2022-08-08T08:17:44.149Z,3.00
2022-08-08T08:20:17.608Z,3.70
2022-08-08T08:22:44.327Z,3.35
2022-08-08T08:25:16.993Z,2.85
2022-08-08T08:28:00.965Z,3.00
2022-08-08T08:30:29.855Z,3.40
2022-08-08T08:32:56.626Z,3.50
2022-08-08T08:35:29.976Z,2.88
2022-08-08T08:38:17.069Z,2.90
2022-08-08T08:40:48.811Z,3.00
2022-08-08T08:43:19.641Z,2.90
2022-08-08T08:45:48.710Z,2.80
2022-08-08T08:48:19.558Z,3.00
2022-08-08T08:50:51.997Z,3.03
2022-08-08T08:53:27.712Z,3.15
2022-08-08T08:56:07.889Z,2.70
2022-08-08T08:58:42.918Z,3.33
2022-08-08T09:01:15.619Z,3.60
2022-08-08T09:03:50.735Z,2.83
2022-08-08T09:06:33.170Z,2.90
2022-08-08T09:09:26.707Z,3.10
2022-08-08T09:12:08.139Z,3.30
2022-08-08T09:14:42.758Z,3.00
2022-08-08T09:17:17.936Z,3.20
2022-08-08T09:21:59.983Z,3.00
2022-08-08T09:22:35.148Z,4.20
2022-08-08T09:25:04.155Z,2.80
2022-08-08T09:27:42.042Z,3.20
2022-08-08T09:30:19.986Z,3.30
2022-08-08T09:33:54.221Z,3.00
2022-08-08T09:35:49.188Z,3.10
2022-08-08T09:38:53.074Z,3.20
2022-08-08T09:42:14.044Z,2.70
2022-08-08T09:45:03.666Z,2.60
2022-08-08T09:48:09.560Z,3.30
2022-08-08T09:50:32.467Z,2.70
2022-08-08T09:53:23.789Z,2.80
2022-08-08T09:56:04.851Z,2.80
2022-08-08T09:58:46.666Z,3.00
2022-08-08T10:02:00.171Z,3.00
2022-08-08T10:04:14.954Z,3.25
2022-08-08T10:07:07.643Z,4.07
2022-08-08T10:09:35.869Z,7.50
2022-08-08T10:12:38.603Z,3.67
2022-08-08T10:15:19.393Z,3.05
2022-08-08T10:18:03.939Z,5.30
2022-08-08T10:20:58.099Z,3.45
2022-08-08T10:23:57.764Z,224.23
2022-08-08T10:26:57.293Z,10.38
2022-08-08T10:29:44.264Z,14.93
2022-08-08T10:32:48.688Z,3.00
2022-08-08T10:36:09.490Z,8.02
2022-08-08T10:38:09.218Z,291.60
2022-08-08T10:40:41.637Z,332.60
2022-08-08T10:43:09.760Z,134.63
2022-08-08T10:45:56.355Z,144.25
2022-08-08T10:48:56.601Z,136.57
2022-08-08T10:51:30.942Z,7.35
2022-08-08T10:54:00.201Z,66.05
2022-08-08T10:56:35.835Z,10.13
2022-08-08T10:59:10.381Z,2.70
2022-08-08T11:01:49.286Z,3.15
2022-08-08T11:04:38.536Z,3.90
2022-08-08T11:07:07.231Z,2.20
2022-08-08T11:09:34.613Z,2.47
2022-08-08T11:12:12.689Z,1.70
2022-08-08T11:14:50.751Z,1.90
2022-08-08T11:17:59.907Z,1.80
2022-08-08T11:20:12.819Z,1.70
2022-08-08T11:22:40.973Z,1.98
2022-08-08T11:25:14.552Z,1.90
2022-08-08T11:27:46.942Z,2.30
2022-08-08T11:30:24.195Z,1.70
2022-08-08T11:32:55.860Z,2.03
2022-08-08T11:35:38.633Z,1.90
2022-08-08T11:38:38.661Z,1.83
2022-08-08T11:40:59.644Z,2.00
2022-08-08T11:43:39.081Z,1.77
2022-08-08T11:46:14.024Z,1.95
2022-08-08T11:48:47.571Z,1.92
2022-08-08T11:51:29.910Z,2.00
2022-08-08T11:54:31.529Z,2.10
2022-08-08T11:57:30.281Z,6.68
2022-08-08T12:00:07.316Z,2.00
2022-08-08T12:02:50.894Z,2.40
2022-08-08T12:05:19.057Z,2.10
2022-08-08T12:07:56.823Z,176.80
2022-08-08T12:10:28.580Z,50.00
2022-08-08T12:13:07.814Z,520.08
2022-08-08T12:15:42.738Z,326.50
2022-08-08T12:18:25.421Z,1.90
2022-08-08T12:20:58.861Z,3.47
2022-08-08T12:23:40.045Z,1.90
2022-08-08T12:26:17.472Z,18.08
2022-08-08T12:28:58.450Z,35.65
2022-08-08T12:31:38.945Z,493.33
2022-08-08T12:34:20.001Z,498.77
2022-08-08T12:36:49.099Z,662.60
2022-08-08T12:40:00.096Z,53.95
2022-08-08T12:42:21.362Z,75.18
2022-08-08T12:44:50.402Z,1.92
2022-08-08T12:47:57.977Z,171.02
2022-08-08T12:50:15.057Z,1.75
2022-08-08T12:52:52.379Z,5.40
2022-08-08T12:55:31.942Z,1.60
2022-08-08T12:58:15.407Z,1.73
2022-08-08T13:00:42.762Z,2.30
2022-08-08T13:03:22.527Z,4.60
2022-08-08T13:06:05.522Z,62.03
2022-08-08T13:08:53.859Z,13.48
2022-08-08T13:12:19.916Z,2.00
2022-08-08T13:14:53.102Z,1.90
2022-08-08T13:18:08.706Z,1.73
2022-08-08T13:20:18.225Z,2.13
2022-08-08T13:22:46.143Z,1.60
2022-08-08T13:25:22.364Z,2.40
2022-08-08T13:27:54.654Z,1.70
2022-08-08T13:30:26.469Z,1.60
2022-08-08T13:32:57.150Z,2.05
2022-08-08T13:35:38.219Z,1.88
2022-08-08T13:38:08.714Z,1.80
2022-08-08T13:40:45.138Z,1.50
2022-08-08T13:43:16.194Z,2.40
2022-08-08T13:45:47.556Z,1.95
2022-08-08T13:48:19.745Z,1.50
2022-08-08T13:50:57.670Z,1.95
2022-08-08T13:53:41.162Z,2.50
2022-08-08T13:56:32.224Z,19.43
2022-08-08T13:58:59.059Z,999.90
2022-08-08T14:01:42.192Z,999.90
2022-08-08T14:04:23.100Z,795.03
2022-08-08T14:06:58.955Z,999.90
2022-08-08T14:10:05.381Z,546.25
2022-08-08T14:12:24.906Z,226.98
2022-08-08T14:14:51.860Z,711.17
2022-08-08T14:17:22.636Z,498.98
2022-08-08T14:20:15.710Z,292.05
2022-08-08T14:24:03.446Z,160.07
2022-08-08T14:26:10.620Z,114.38
2022-08-08T14:28:40.005Z,1.70
2022-08-08T14:31:11.395Z,1.98
2022-08-08T14:33:57.469Z,47.53
2022-08-08T14:36:38.803Z,549.28
2022-08-08T14:39:11.272Z,3.87
2022-08-08T14:41:45.163Z,233.18
2022-08-08T14:44:35.091Z,607.67
2022-08-08T14:47:17.370Z,999.90
2022-08-08T14:50:06.631Z,827.67
2022-08-08T14:52:46.287Z,854.67
2022-08-08T14:55:13.530Z,999.90
2022-08-08T14:58:03.147Z,896.08
2022-08-08T15:00:34.780Z,999.90
2022-08-08T15:03:14.917Z,164.85
2022-08-08T15:05:53.821Z,999.90
2022-08-08T15:08:35.340Z,594.28
2022-08-08T15:11:09.258Z,446.75
2022-08-08T15:13:41.097Z,999.90
2022-08-08T15:16:25.160Z,922.25
2022-08-08T15:18:54.628Z,54.63
2022-08-08T15:21:21.349Z,403.35
2022-08-08T15:23:50.937Z,11.05
2022-08-08T15:26:20.119Z,884.45
2022-08-08T15:28:52.964Z,999.90
2022-08-08T15:31:56.198Z,999.90
2022-08-08T15:34:07.157Z,999.90
2022-08-08T15:36:35.606Z,999.90
2022-08-08T15:39:04.312Z,999.90
2022-08-08T15:41:43.632Z,999.90
2022-08-08T15:44:13.301Z,999.90
2022-08-08T15:46:45.233Z,947.75
2022-08-08T15:49:17.234Z,38.53
2022-08-08T15:51:44.300Z,310.17
2022-08-08T15:54:18.897Z,34.00
2022-08-08T15:56:57.883Z,83.03
2022-08-08T16:00:06.511Z,364.63
2022-08-08T16:02:13.483Z,679.40
2022-08-08T16:04:42.366Z,595.13
2022-08-08T16:07:09.281Z,600.53
2022-08-08T16:13:08.467Z,999.90
2022-08-08T16:13:09.301Z,772.45
2022-08-08T16:15:10.038Z,658.22
2022-08-08T16:18:06.642Z,527.75
2022-08-08T16:20:29.121Z,9.90
2022-08-08T16:22:56.609Z,560.70
2022-08-08T16:25:24.427Z,750.45
2022-08-08T16:28:22.733Z,999.90
2022-08-08T16:30:57.111Z,711.05
2022-08-08T16:33:24.935Z,238.70
2022-08-08T16:36:03.195Z,172.60
2022-08-08T16:38:32.000Z,729.15
2022-08-08T16:41:01.841Z,121.95
2022-08-08T16:43:29.511Z,332.83
2022-08-08T16:46:38.673Z,8.60
2022-08-08T16:49:00.106Z,964.58
2022-08-08T16:55:05.140Z,23.20
2022-08-08T16:55:18.392Z,2.03
2022-08-08T16:57:03.633Z,354.27
2022-08-08T16:59:50.887Z,696.03
2022-08-08T17:02:37.895Z,488.10
2022-08-08T17:05:06.669Z,1.45
2022-08-08T17:07:33.439Z,15.45
2022-08-08T17:10:05.247Z,999.90
2022-08-08T17:12:34.746Z,515.28
2022-08-08T17:15:17.480Z,999.90
2022-08-08T17:18:01.710Z,999.90
2022-08-08T17:20:39.615Z,226.95
2022-08-08T17:23:18.115Z,817.57
2022-08-08T17:25:55.204Z,327.03
2022-08-08T17:28:34.195Z,334.08
2022-08-08T17:31:39.363Z,494.30
2022-08-08T17:34:47.938Z,981.28
2022-08-08T17:37:00.229Z,999.90
2022-08-08T17:40:05.030Z,737.67
2022-08-08T17:42:19.101Z,999.90
2022-08-08T17:44:49.185Z,809.15
2022-08-08T17:47:27.653Z,986.83
2022-08-08T17:50:00.987Z,782.85
2022-08-08T17:52:34.201Z,971.08
2022-08-08T17:55:05.176Z,999.90
2022-08-08T17:57:35.339Z,999.90
2022-08-08T18:00:10.331Z,966.47
2022-08-08T18:02:52.653Z,982.53
2022-08-08T18:05:49.586Z,782.17
2022-08-08T18:08:24.927Z,919.10
2022-08-08T18:11:16.288Z,845.58
2022-08-08T18:13:47.662Z,346.30
2022-08-08T18:16:20.811Z,769.17
2022-08-08T18:18:56.073Z,891.90
2022-08-08T18:22:00.301Z,999.90
2022-08-08T18:24:18.913Z,727.05
2022-08-08T18:26:54.231Z,980.42
2022-08-08T18:29:30.048Z,999.90
2022-08-08T18:32:07.173Z,854.45
2022-08-08T18:34:35.434Z,999.90
2022-08-08T18:37:08.087Z,858.33
2022-08-08T18:39:36.717Z,999.90
2022-08-08T18:42:04.793Z,999.90
2022-08-08T18:44:34.539Z,999.90
2022-08-08T18:47:03.217Z,949.33
2022-08-08T18:49:32.350Z,795.95
2022-08-08T18:52:16.881Z,999.90
2022-08-08T18:54:46.112Z,999.90
2022-08-08T18:57:33.465Z,867.33
2022-08-08T19:00:07.531Z,999.90
2022-08-08T19:02:37.669Z,370.50
2022-08-08T19:05:15.488Z,999.90
2022-08-08T19:07:52.096Z,550.15
2022-08-08T19:10:19.506Z,467.45
2022-08-08T19:12:53.263Z,999.90
2022-08-08T19:15:21.804Z,774.90
2022-08-08T19:18:33.445Z,999.90
2022-08-08T19:20:39.128Z,527.70
2022-08-08T19:23:07.762Z,418.15
2022-08-08T19:26:01.891Z,904.88
2022-08-08T19:28:24.497Z,968.47
2022-08-08T19:31:04.244Z,899.88
2022-08-08T19:33:51.601Z,985.20
2022-08-08T19:36:27.575Z,938.90
2022-08-08T19:38:57.587Z,798.17
2022-08-08T19:41:33.631Z,55.40
2022-08-08T19:44:03.121Z,392.52
2022-08-08T19:46:33.752Z,313.10
2022-08-08T19:49:01.713Z,999.90
2022-08-08T19:51:34.689Z,999.90
2022-08-08T19:54:08.485Z,999.90
2022-08-08T19:56:40.351Z,79.00
2022-08-08T19:59:12.896Z,91.25
2022-08-08T20:02:02.176Z,9.10
2022-08-08T20:04:30.848Z,3.17
2022-08-08T20:07:05.129Z,2.35
2022-08-08T20:09:56.239Z,2.30
2022-08-08T20:12:31.609Z,2.45
2022-08-08T20:15:00.020Z,2.40
2022-08-08T20:17:29.307Z,2.50
2022-08-08T20:19:56.266Z,2.22
2022-08-08T20:22:30.707Z,2.60
2022-08-08T20:25:00.328Z,2.00
2022-08-08T20:27:43.722Z,2.20
2022-08-08T20:30:53.842Z,2.08
2022-08-08T20:33:01.695Z,2.10
2022-08-08T20:35:57.189Z,1.80
2022-08-08T20:38:15.447Z,1.75
2022-08-08T20:40:47.404Z,2.40
2022-08-08T20:43:43.152Z,1.80
2022-08-08T20:46:04.689Z,1.90
2022-08-08T20:48:31.652Z,1.87
2022-08-08T20:50:58.617Z,1.60
2022-08-08T20:54:00.758Z,1.70
2022-08-08T20:56:14.002Z,1.73
2022-08-08T20:58:47.813Z,1.50
2022-08-08T21:01:19.757Z,1.80
2022-08-08T21:03:59.696Z,1.70
2022-08-08T21:06:53.084Z,1.50
2022-08-08T21:09:15.856Z,1.50
2022-08-08T21:11:52.242Z,1.70
2022-08-08T21:14:30.168Z,1.70
2022-08-08T21:17:00.108Z,1.45
2022-08-08T21:19:33.997Z,1.83
2022-08-08T21:22:12.703Z,1.97
2022-08-08T21:24:52.146Z,1.80
2022-08-08T21:27:38.775Z,1.50
2022-08-08T21:30:18.840Z,1.80
2022-08-08T21:32:51.651Z,1.98
2022-08-08T21:36:17.885Z,1.92
2022-08-08T21:38:08.570Z,1.90
2022-08-08T21:40:55.984Z,2.33
2022-08-08T21:43:25.374Z,2.00
2022-08-08T21:48:06.923Z,1.90
2022-08-08T21:48:44.571Z,1.83
2022-08-08T21:51:16.317Z,2.10
2022-08-08T21:54:31.917Z,1.80
2022-08-08T21:56:50.201Z,1.90
2022-08-08T21:59:17.174Z,1.92
2022-08-08T22:01:52.055Z,2.40
2022-08-08T22:04:24.819Z,9.95
2022-08-08T22:06:52.573Z,2.42
2022-08-08T22:09:19.539Z,2.17
2022-08-08T22:11:59.397Z,2.00
2022-08-08T22:14:31.556Z,2.10
2022-08-08T22:17:01.210Z,2.10
2022-08-08T22:19:29.782Z,2.20
2022-08-08T22:21:56.867Z,2.33
2022-08-08T22:24:28.287Z,1.97
2022-08-08T22:27:02.533Z,2.60
2022-08-08T22:30:01.944Z,2.72
2022-08-08T22:32:19.050Z,2.40
2022-08-08T22:34:50.606Z,2.50
2022-08-08T22:37:49.911Z,2.38
2022-08-08T22:40:16.463Z,2.65
2022-08-08T22:42:47.135Z,2.28
2022-08-08T22:45:15.507Z,2.47
2022-08-08T22:47:46.959Z,2.17
2022-08-08T22:50:25.883Z,2.70
2022-08-08T22:54:29.513Z,2.97
2022-08-08T22:55:59.720Z,2.70
2022-08-08T22:58:34.644Z,3.03
2022-08-08T23:01:16.700Z,3.00
2022-08-08T23:03:56.885Z,3.10
2022-08-08T23:06:24.875Z,3.40
2022-08-08T23:08:55.529Z,3.30
2022-08-08T23:11:31.043Z,3.13
2022-08-08T23:14:14.595Z,2.80
2022-08-08T23:16:47.022Z,2.67
2022-08-08T23:19:16.450Z,3.00
2022-08-08T23:21:46.915Z,3.05
2022-08-08T23:24:13.839Z,2.92
2022-08-08T23:26:55.625Z,2.83
2022-08-08T23:29:23.751Z,3.00
2022-08-08T23:31:50.445Z,3.05
2022-08-08T23:34:19.560Z,2.80
2022-08-08T23:36:47.716Z,3.90
2022-08-08T23:39:15.660Z,3.20
2022-08-08T23:41:46.063Z,3.03
2022-08-08T23:44:14.604Z,2.40
2022-08-08T23:49:02.866Z,2.90
2022-08-08T23:49:28.453Z,2.90
2022-08-08T23:52:04.812Z,2.90
2022-08-08T23:54:42.127Z,2.80
2022-08-08T23:57:26.374Z,2.40
